sensor_id;sensor_type;location;lat;lon;timestamp;temperature;humidity
43520;DHT22;46848;51.980;5.918;2022-09-09T00:02:19;17.30;80.50
43520;DHT22;46848;51.980;5.918;2022-09-09T00:07:53;17.40;80.70
43520;DHT22;46848;51.980;5.918;2022-09-09T00:10:36;17.40;80.80
43520;DHT22;46848;51.980;5.918;2022-09-09T00:13:19;17.50;80.70
43520;DHT22;46848;51.980;5.918;2022-09-09T00:15:59;17.60;80.60
43520;DHT22;46848;51.980;5.918;2022-09-09T00:18:44;17.60;80.60
43520;DHT22;46848;51.980;5.918;2022-09-09T00:21:14;17.70;80.60
43520;DHT22;46848;51.980;5.918;2022-09-09T00:23:51;17.70;80.20
43520;DHT22;46848;51.980;5.918;2022-09-09T00:31:39;17.70;80.40
43520;DHT22;46848;51.980;5.918;2022-09-09T00:34:13;17.70;80.30
43520;DHT22;46848;51.980;5.918;2022-09-09T00:36:41;17.70;80.30
43520;DHT22;46848;51.980;5.918;2022-09-09T00:39:20;17.80;80.20
43520;DHT22;46848;51.980;5.918;2022-09-09T00:44:38;17.80;80.30
43520;DHT22;46848;51.980;5.918;2022-09-09T00:58:21;17.80;79.90
43520;DHT22;46848;51.980;5.918;2022-09-09T01:00:51;17.80;79.80
43520;DHT22;46848;51.980;5.918;2022-09-09T01:06:32;17.80;79.90
43520;DHT22;46848;51.980;5.918;2022-09-09T01:14:48;17.80;79.80
43520;DHT22;46848;51.980;5.918;2022-09-09T01:28:08;17.70;79.70
43520;DHT22;46848;51.980;5.918;2022-09-09T01:30:39;17.70;79.60
43520;DHT22;46848;51.980;5.918;2022-09-09T01:33:07;17.70;79.40
43520;DHT22;46848;51.980;5.918;2022-09-09T01:35:45;17.70;79.30
43520;DHT22;46848;51.980;5.918;2022-09-09T01:38:12;17.70;79.30
43520;DHT22;46848;51.980;5.918;2022-09-09T01:40:38;17.70;79.20
43520;DHT22;46848;51.980;5.918;2022-09-09T01:43:04;17.70;79.20
43520;DHT22;46848;51.980;5.918;2022-09-09T01:45:30;17.60;79.10
43520;DHT22;46848;51.980;5.918;2022-09-09T01:47:56;17.60;79.10
43520;DHT22;46848;51.980;5.918;2022-09-09T01:50:22;17.60;79.10
43520;DHT22;46848;51.980;5.918;2022-09-09T01:52:56;17.60;79.10
43520;DHT22;46848;51.980;5.918;2022-09-09T01:55:40;17.60;79.10
43520;DHT22;46848;51.980;5.918;2022-09-09T02:01:00;17.50;79.10
43520;DHT22;46848;51.980;5.918;2022-09-09T02:03:28;17.50;79.20
43520;DHT22;46848;51.980;5.918;2022-09-09T02:08:55;17.60;79.10
43520;DHT22;46848;51.980;5.918;2022-09-09T02:11:27;17.60;79.10
43520;DHT22;46848;51.980;5.918;2022-09-09T02:13:55;17.50;78.90
43520;DHT22;46848;51.980;5.918;2022-09-09T02:16:47;17.50;78.80
43520;DHT22;46848;51.980;5.918;2022-09-09T02:19:32;17.50;78.80
43520;DHT22;46848;51.980;5.918;2022-09-09T02:22:00;17.50;78.60
43520;DHT22;46848;51.980;5.918;2022-09-09T02:24:30;17.50;78.60
43520;DHT22;46848;51.980;5.918;2022-09-09T02:26:57;17.50;78.60
43520;DHT22;46848;51.980;5.918;2022-09-09T02:29:34;17.40;78.30
43520;DHT22;46848;51.980;5.918;2022-09-09T02:32:06;17.40;78.40
43520;DHT22;46848;51.980;5.918;2022-09-09T02:34:36;17.30;78.20
43520;DHT22;46848;51.980;5.918;2022-09-09T02:37:06;17.40;78.30
43520;DHT22;46848;51.980;5.918;2022-09-09T02:39:33;17.40;78.30
43520;DHT22;46848;51.980;5.918;2022-09-09T02:41:59;17.40;78.30
43520;DHT22;46848;51.980;5.918;2022-09-09T02:44:25;17.40;78.40
43520;DHT22;46848;51.980;5.918;2022-09-09T02:49:57;17.30;78.40
43520;DHT22;46848;51.980;5.918;2022-09-09T02:55:12;17.30;78.40
43520;DHT22;46848;51.980;5.918;2022-09-09T02:57:40;17.30;78.50
43520;DHT22;46848;51.980;5.918;2022-09-09T03:00:07;17.30;78.50
43520;DHT22;46848;51.980;5.918;2022-09-09T03:02:33;17.40;78.60
43520;DHT22;46848;51.980;5.918;2022-09-09T03:04:59;17.30;78.50
43520;DHT22;46848;51.980;5.918;2022-09-09T03:07:24;17.40;78.50
43520;DHT22;46848;51.980;5.918;2022-09-09T03:09:50;17.40;78.40
43520;DHT22;46848;51.980;5.918;2022-09-09T03:12:16;17.30;78.30
43520;DHT22;46848;51.980;5.918;2022-09-09T03:14:41;17.30;78.30
43520;DHT22;46848;51.980;5.918;2022-09-09T03:17:08;17.30;78.20
43520;DHT22;46848;51.980;5.918;2022-09-09T03:19:34;17.30;78.20
43520;DHT22;46848;51.980;5.918;2022-09-09T03:22:01;17.20;78.20
43520;DHT22;46848;51.980;5.918;2022-09-09T03:24:27;17.20;78.30
43520;DHT22;46848;51.980;5.918;2022-09-09T03:26:52;17.20;78.40
43520;DHT22;46848;51.980;5.918;2022-09-09T03:29:18;17.20;78.30
43520;DHT22;46848;51.980;5.918;2022-09-09T03:31:44;17.10;78.30
43520;DHT22;46848;51.980;5.918;2022-09-09T03:34:10;17.10;78.30
43520;DHT22;46848;51.980;5.918;2022-09-09T03:36:36;17.10;78.40
43520;DHT22;46848;51.980;5.918;2022-09-09T03:39:03;17.00;78.50
43520;DHT22;46848;51.980;5.918;2022-09-09T03:41:29;17.00;78.60
43520;DHT22;46848;51.980;5.918;2022-09-09T03:43:55;17.00;78.70
43520;DHT22;46848;51.980;5.918;2022-09-09T03:46:23;16.90;78.70
43520;DHT22;46848;51.980;5.918;2022-09-09T03:48:49;16.90;78.80
43520;DHT22;46848;51.980;5.918;2022-09-09T03:51:16;17.00;78.80
43520;DHT22;46848;51.980;5.918;2022-09-09T03:53:42;16.90;78.80
43520;DHT22;46848;51.980;5.918;2022-09-09T03:56:08;17.00;78.90
43520;DHT22;46848;51.980;5.918;2022-09-09T03:58:34;17.00;79.50
43520;DHT22;46848;51.980;5.918;2022-09-09T04:01:03;17.00;78.90
43520;DHT22;46848;51.980;5.918;2022-09-09T04:03:29;17.10;79.00
43520;DHT22;46848;51.980;5.918;2022-09-09T04:05:57;17.10;79.00
43520;DHT22;46848;51.980;5.918;2022-09-09T04:08:24;17.10;78.90
43520;DHT22;46848;51.980;5.918;2022-09-09T04:10:51;17.10;79.00
43520;DHT22;46848;51.980;5.918;2022-09-09T04:13:17;17.10;79.00
43520;DHT22;46848;51.980;5.918;2022-09-09T04:15:57;17.10;79.00
43520;DHT22;46848;51.980;5.918;2022-09-09T04:18:24;17.20;79.10
43520;DHT22;46848;51.980;5.918;2022-09-09T04:20:51;17.20;79.00
43520;DHT22;46848;51.980;5.918;2022-09-09T04:23:19;17.30;79.10
43520;DHT22;46848;51.980;5.918;2022-09-09T04:25:50;17.30;79.10
43520;DHT22;46848;51.980;5.918;2022-09-09T04:28:17;17.30;79.10
43520;DHT22;46848;51.980;5.918;2022-09-09T04:30:43;17.30;79.10
43520;DHT22;46848;51.980;5.918;2022-09-09T04:33:10;17.40;79.40
43520;DHT22;46848;51.980;5.918;2022-09-09T04:35:38;17.40;79.20
43520;DHT22;46848;51.980;5.918;2022-09-09T04:38:04;17.40;79.20
43520;DHT22;46848;51.980;5.918;2022-09-09T04:40:32;17.50;79.20
43520;DHT22;46848;51.980;5.918;2022-09-09T04:42:59;17.50;79.20
43520;DHT22;46848;51.980;5.918;2022-09-09T04:45:25;17.50;79.20
43520;DHT22;46848;51.980;5.918;2022-09-09T04:47:51;17.50;79.10
43520;DHT22;46848;51.980;5.918;2022-09-09T04:50:17;17.50;79.10
43520;DHT22;46848;51.980;5.918;2022-09-09T04:52:44;17.50;79.10
43520;DHT22;46848;51.980;5.918;2022-09-09T04:55:10;17.50;79.00
43520;DHT22;46848;51.980;5.918;2022-09-09T04:57:36;17.60;79.00
43520;DHT22;46848;51.980;5.918;2022-09-09T05:00:02;17.60;78.90
43520;DHT22;46848;51.980;5.918;2022-09-09T05:02:28;17.60;78.90
43520;DHT22;46848;51.980;5.918;2022-09-09T05:04:55;17.50;79.00
43520;DHT22;46848;51.980;5.918;2022-09-09T05:07:21;17.60;79.10
43520;DHT22;46848;51.980;5.918;2022-09-09T05:09:47;17.50;79.00
43520;DHT22;46848;51.980;5.918;2022-09-09T05:12:15;17.50;79.00
43520;DHT22;46848;51.980;5.918;2022-09-09T05:14:42;17.50;79.00
43520;DHT22;46848;51.980;5.918;2022-09-09T05:17:08;17.50;79.10
43520;DHT22;46848;51.980;5.918;2022-09-09T05:19:33;17.50;79.20
43520;DHT22;46848;51.980;5.918;2022-09-09T05:21:59;17.50;79.30
43520;DHT22;46848;51.980;5.918;2022-09-09T05:24:26;17.50;79.40
43520;DHT22;46848;51.980;5.918;2022-09-09T05:26:52;17.50;79.50
43520;DHT22;46848;51.980;5.918;2022-09-09T05:29:18;17.50;79.50
43520;DHT22;46848;51.980;5.918;2022-09-09T05:31:45;17.60;79.70
43520;DHT22;46848;51.980;5.918;2022-09-09T05:34:11;17.50;79.80
43520;DHT22;46848;51.980;5.918;2022-09-09T05:36:37;17.50;79.90
43520;DHT22;46848;51.980;5.918;2022-09-09T05:39:03;17.50;80.00
43520;DHT22;46848;51.980;5.918;2022-09-09T05:41:29;17.50;80.20
43520;DHT22;46848;51.980;5.918;2022-09-09T05:43:54;17.60;80.10
43520;DHT22;46848;51.980;5.918;2022-09-09T05:46:22;17.60;80.00
43520;DHT22;46848;51.980;5.918;2022-09-09T05:48:50;17.60;80.10
43520;DHT22;46848;51.980;5.918;2022-09-09T05:51:19;17.70;80.30
43520;DHT22;46848;51.980;5.918;2022-09-09T05:53:47;17.60;80.20
43520;DHT22;46848;51.980;5.918;2022-09-09T05:56:17;17.60;80.30
43520;DHT22;46848;51.980;5.918;2022-09-09T05:58:43;17.70;80.40
43520;DHT22;46848;51.980;5.918;2022-09-09T06:01:11;17.70;80.20
43520;DHT22;46848;51.980;5.918;2022-09-09T06:03:39;17.80;80.10
43520;DHT22;46848;51.980;5.918;2022-09-09T06:06:06;17.80;80.10
43520;DHT22;46848;51.980;5.918;2022-09-09T06:08:34;17.80;80.10
43520;DHT22;46848;51.980;5.918;2022-09-09T06:11:17;17.80;80.10
43520;DHT22;46848;51.980;5.918;2022-09-09T06:13:43;17.90;80.10
43520;DHT22;46848;51.980;5.918;2022-09-09T06:16:11;17.90;80.00
43520;DHT22;46848;51.980;5.918;2022-09-09T06:18:37;18.00;79.80
43520;DHT22;46848;51.980;5.918;2022-09-09T06:21:05;18.00;79.70
43520;DHT22;46848;51.980;5.918;2022-09-09T06:23:32;18.10;79.70
43520;DHT22;46848;51.980;5.918;2022-09-09T06:26:10;18.10;79.70
43520;DHT22;46848;51.980;5.918;2022-09-09T06:28:36;18.10;79.70
43520;DHT22;46848;51.980;5.918;2022-09-09T06:31:04;18.10;79.50
43520;DHT22;46848;51.980;5.918;2022-09-09T06:33:35;18.10;79.50
43520;DHT22;46848;51.980;5.918;2022-09-09T06:36:02;18.10;79.70
43520;DHT22;46848;51.980;5.918;2022-09-09T06:38:29;18.10;79.70
43520;DHT22;46848;51.980;5.918;2022-09-09T06:40:56;18.10;79.80
43520;DHT22;46848;51.980;5.918;2022-09-09T06:43:23;18.10;79.70
43520;DHT22;46848;51.980;5.918;2022-09-09T06:46:16;18.10;79.80
43520;DHT22;46848;51.980;5.918;2022-09-09T06:48:44;18.10;79.80
43520;DHT22;46848;51.980;5.918;2022-09-09T06:51:18;18.10;79.70
43520;DHT22;46848;51.980;5.918;2022-09-09T06:53:47;18.20;79.60
43520;DHT22;46848;51.980;5.918;2022-09-09T06:58:51;18.30;79.90
43520;DHT22;46848;51.980;5.918;2022-09-09T07:01:19;18.30;79.30
43520;DHT22;46848;51.980;5.918;2022-09-09T07:03:48;18.40;79.20
43520;DHT22;46848;51.980;5.918;2022-09-09T07:06:15;18.50;79.10
43520;DHT22;46848;51.980;5.918;2022-09-09T07:08:43;18.50;78.80
43520;DHT22;46848;51.980;5.918;2022-09-09T07:11:09;18.50;78.70
43520;DHT22;46848;51.980;5.918;2022-09-09T07:13:35;18.50;78.60
43520;DHT22;46848;51.980;5.918;2022-09-09T07:16:12;18.60;78.50
43520;DHT22;46848;51.980;5.918;2022-09-09T07:18:39;18.60;78.30
43520;DHT22;46848;51.980;5.918;2022-09-09T07:21:05;18.70;78.30
43520;DHT22;46848;51.980;5.918;2022-09-09T07:23:32;18.70;77.90
43520;DHT22;46848;51.980;5.918;2022-09-09T07:25:58;18.60;78.00
43520;DHT22;46848;51.980;5.918;2022-09-09T07:28:25;18.60;78.00
43520;DHT22;46848;51.980;5.918;2022-09-09T07:31:00;18.60;78.10
43520;DHT22;46848;51.980;5.918;2022-09-09T07:33:29;18.70;78.20
43520;DHT22;46848;51.980;5.918;2022-09-09T07:36:10;18.70;78.00
43520;DHT22;46848;51.980;5.918;2022-09-09T07:38:38;18.70;77.80
43520;DHT22;46848;51.980;5.918;2022-09-09T07:41:07;18.70;77.70
43520;DHT22;46848;51.980;5.918;2022-09-09T07:43:40;18.90;77.50
43520;DHT22;46848;51.980;5.918;2022-09-09T07:46:06;18.90;77.00
43520;DHT22;46848;51.980;5.918;2022-09-09T07:48:32;18.90;77.00
43520;DHT22;46848;51.980;5.918;2022-09-09T07:51:13;19.00;76.90
43520;DHT22;46848;51.980;5.918;2022-09-09T07:53:43;18.90;76.80
43520;DHT22;46848;51.980;5.918;2022-09-09T07:56:11;19.00;76.80
43520;DHT22;46848;51.980;5.918;2022-09-09T07:58:38;19.10;76.60
43520;DHT22;46848;51.980;5.918;2022-09-09T08:01:16;19.10;76.60
43520;DHT22;46848;51.980;5.918;2022-09-09T08:03:46;19.20;76.40
43520;DHT22;46848;51.980;5.918;2022-09-09T08:06:13;19.20;75.90
43520;DHT22;46848;51.980;5.918;2022-09-09T08:08:39;19.10;75.80
43520;DHT22;46848;51.980;5.918;2022-09-09T08:11:14;19.10;75.90
43520;DHT22;46848;51.980;5.918;2022-09-09T08:13:41;19.20;75.80
43520;DHT22;46848;51.980;5.918;2022-09-09T08:16:16;19.20;75.80
43520;DHT22;46848;51.980;5.918;2022-09-09T08:18:42;19.10;75.60
43520;DHT22;46848;51.980;5.918;2022-09-09T08:21:08;19.10;75.60
43520;DHT22;46848;51.980;5.918;2022-09-09T08:23:34;19.10;75.60
43520;DHT22;46848;51.980;5.918;2022-09-09T08:26:05;19.00;75.40
43520;DHT22;46848;51.980;5.918;2022-09-09T08:28:31;18.90;75.20
43520;DHT22;46848;51.980;5.918;2022-09-09T08:31:04;19.00;75.50
43520;DHT22;46848;51.980;5.918;2022-09-09T08:33:29;19.00;75.20
43520;DHT22;46848;51.980;5.918;2022-09-09T08:35:55;19.00;75.00
43520;DHT22;46848;51.980;5.918;2022-09-09T08:38:21;19.00;75.10
43520;DHT22;46848;51.980;5.918;2022-09-09T08:40:49;19.00;75.20
43520;DHT22;46848;51.980;5.918;2022-09-09T08:43:17;19.00;75.40
43520;DHT22;46848;51.980;5.918;2022-09-09T08:46:19;18.90;75.30
43520;DHT22;46848;51.980;5.918;2022-09-09T08:48:55;18.90;75.20
43520;DHT22;46848;51.980;5.918;2022-09-09T08:51:27;19.00;75.10
43520;DHT22;46848;51.980;5.918;2022-09-09T08:53:57;19.00;75.10
43520;DHT22;46848;51.980;5.918;2022-09-09T08:56:25;19.00;75.10
43520;DHT22;46848;51.980;5.918;2022-09-09T08:58:54;19.00;74.90
43520;DHT22;46848;51.980;5.918;2022-09-09T09:09:16;19.20;74.60
43520;DHT22;46848;51.980;5.918;2022-09-09T09:11:45;19.20;74.40
43520;DHT22;46848;51.980;5.918;2022-09-09T09:14:23;19.20;74.00
43520;DHT22;46848;51.980;5.918;2022-09-09T09:17:00;19.30;73.90
43520;DHT22;46848;51.980;5.918;2022-09-09T09:19:29;19.30;73.20
43520;DHT22;46848;51.980;5.918;2022-09-09T09:30:04;19.20;72.50
43520;DHT22;46848;51.980;5.918;2022-09-09T09:32:33;19.30;72.50
43520;DHT22;46848;51.980;5.918;2022-09-09T09:35:02;19.20;72.40
43520;DHT22;46848;51.980;5.918;2022-09-09T09:37:33;19.20;72.30
43520;DHT22;46848;51.980;5.918;2022-09-09T09:40:15;19.20;72.10
43520;DHT22;46848;51.980;5.918;2022-09-09T09:43:00;19.30;72.10
43520;DHT22;46848;51.980;5.918;2022-09-09T09:45:42;19.30;72.10
43520;DHT22;46848;51.980;5.918;2022-09-09T09:48:12;19.30;72.20
43520;DHT22;46848;51.980;5.918;2022-09-09T09:50:59;19.40;72.30
43520;DHT22;46848;51.980;5.918;2022-09-09T09:53:33;19.50;72.20
43520;DHT22;46848;51.980;5.918;2022-09-09T09:56:05;19.60;71.70
43520;DHT22;46848;51.980;5.918;2022-09-09T10:01:24;19.70;71.30
43520;DHT22;46848;51.980;5.918;2022-09-09T10:03:52;19.80;71.20
43520;DHT22;46848;51.980;5.918;2022-09-09T10:06:32;19.90;71.00
43520;DHT22;46848;51.980;5.918;2022-09-09T10:08:59;19.90;71.10
43520;DHT22;46848;51.980;5.918;2022-09-09T10:11:41;19.90;70.10
43520;DHT22;46848;51.980;5.918;2022-09-09T10:14:20;19.80;70.20
43520;DHT22;46848;51.980;5.918;2022-09-09T10:17:09;19.80;70.20
43520;DHT22;46848;51.980;5.918;2022-09-09T10:19:37;19.80;70.30
43520;DHT22;46848;51.980;5.918;2022-09-09T10:22:27;19.80;70.40
43520;DHT22;46848;51.980;5.918;2022-09-09T10:33:42;19.60;70.10
43520;DHT22;46848;51.980;5.918;2022-09-09T10:36:13;19.60;70.40
43520;DHT22;46848;51.980;5.918;2022-09-09T10:38:42;19.70;70.50
43520;DHT22;46848;51.980;5.918;2022-09-09T10:41:16;19.70;70.50
43520;DHT22;46848;51.980;5.918;2022-09-09T10:59:51;19.60;71.30
43520;DHT22;46848;51.980;5.918;2022-09-09T11:02:25;19.60;71.20
43520;DHT22;46848;51.980;5.918;2022-09-09T11:05:04;19.60;71.20
43520;DHT22;46848;51.980;5.918;2022-09-09T11:07:56;19.60;71.00
43520;DHT22;46848;51.980;5.918;2022-09-09T11:10:25;19.70;70.90
43520;DHT22;46848;51.980;5.918;2022-09-09T11:13:01;19.70;70.80
43520;DHT22;46848;51.980;5.918;2022-09-09T11:15:42;19.70;70.70
43520;DHT22;46848;51.980;5.918;2022-09-09T11:18:15;19.70;70.40
43520;DHT22;46848;51.980;5.918;2022-09-09T11:20:44;19.70;70.40
43520;DHT22;46848;51.980;5.918;2022-09-09T11:23:17;19.70;70.70
43520;DHT22;46848;51.980;5.918;2022-09-09T11:25:50;19.60;71.40
43520;DHT22;46848;51.980;5.918;2022-09-09T11:28:44;19.60;72.20
43520;DHT22;46848;51.980;5.918;2022-09-09T11:42:18;19.70;73.30
43520;DHT22;46848;51.980;5.918;2022-09-09T11:44:44;19.70;73.30
43520;DHT22;46848;51.980;5.918;2022-09-09T11:47:36;19.80;73.40
43520;DHT22;46848;51.980;5.918;2022-09-09T11:52:39;19.80;73.50
43520;DHT22;46848;51.980;5.918;2022-09-09T11:58:05;19.80;73.50
43520;DHT22;46848;51.980;5.918;2022-09-09T12:03:03;19.70;74.20
43520;DHT22;46848;51.980;5.918;2022-09-09T12:05:56;19.70;74.50
43520;DHT22;46848;51.980;5.918;2022-09-09T12:08:27;19.80;75.20
43520;DHT22;46848;51.980;5.918;2022-09-09T12:10:58;19.80;75.30
43520;DHT22;46848;51.980;5.918;2022-09-09T12:13:28;19.90;75.30
43520;DHT22;46848;51.980;5.918;2022-09-09T12:15:55;20.00;75.10
43520;DHT22;46848;51.980;5.918;2022-09-09T12:18:40;20.10;74.80
43520;DHT22;46848;51.980;5.918;2022-09-09T12:23:55;20.10;74.50
43520;DHT22;46848;51.980;5.918;2022-09-09T12:27:02;20.10;74.40
43520;DHT22;46848;51.980;5.918;2022-09-09T12:29:54;20.10;74.20
43520;DHT22;46848;51.980;5.918;2022-09-09T12:32:23;19.90;74.00
43520;DHT22;46848;51.980;5.918;2022-09-09T12:35:03;19.90;74.00
43520;DHT22;46848;51.980;5.918;2022-09-09T12:38:01;19.80;74.20
43520;DHT22;46848;51.980;5.918;2022-09-09T12:40:30;19.90;74.30
43520;DHT22;46848;51.980;5.918;2022-09-09T12:42:58;20.00;74.20
43520;DHT22;46848;51.980;5.918;2022-09-09T12:45:28;20.00;74.00
43520;DHT22;46848;51.980;5.918;2022-09-09T12:48:08;20.00;73.80
43520;DHT22;46848;51.980;5.918;2022-09-09T12:50:50;20.10;73.70
43520;DHT22;46848;51.980;5.918;2022-09-09T12:53:23;20.10;73.40
43520;DHT22;46848;51.980;5.918;2022-09-09T12:58:21;20.10;73.40
43520;DHT22;46848;51.980;5.918;2022-09-09T13:00:51;20.20;73.40
43520;DHT22;46848;51.980;5.918;2022-09-09T13:03:20;20.20;73.30
43520;DHT22;46848;51.980;5.918;2022-09-09T13:05:49;20.20;72.90
43520;DHT22;46848;51.980;5.918;2022-09-09T13:08:16;20.10;72.90
43520;DHT22;46848;51.980;5.918;2022-09-09T13:11:04;20.10;73.20
43520;DHT22;46848;51.980;5.918;2022-09-09T13:13:36;20.00;73.50
43520;DHT22;46848;51.980;5.918;2022-09-09T13:16:03;19.90;74.40
43520;DHT22;46848;51.980;5.918;2022-09-09T13:18:36;19.80;75.20
43520;DHT22;46848;51.980;5.918;2022-09-09T13:21:03;19.80;76.00
43520;DHT22;46848;51.980;5.918;2022-09-09T13:23:31;19.80;76.10
43520;DHT22;46848;51.980;5.918;2022-09-09T13:26:04;19.80;76.00
43520;DHT22;46848;51.980;5.918;2022-09-09T13:28:31;19.90;75.60
43520;DHT22;46848;51.980;5.918;2022-09-09T13:33:36;20.00;75.30
43520;DHT22;46848;51.980;5.918;2022-09-09T13:36:07;19.90;74.80
43520;DHT22;46848;51.980;5.918;2022-09-09T13:41:23;19.90;74.70
43520;DHT22;46848;51.980;5.918;2022-09-09T13:43:50;20.00;74.80
43520;DHT22;46848;51.980;5.918;2022-09-09T13:46:39;20.10;74.70
43520;DHT22;46848;51.980;5.918;2022-09-09T13:51:49;20.20;74.20
43520;DHT22;46848;51.980;5.918;2022-09-09T13:54:18;20.30;73.90
43520;DHT22;46848;51.980;5.918;2022-09-09T13:56:45;20.30;73.90
43520;DHT22;46848;51.980;5.918;2022-09-09T13:59:13;20.30;73.80
43520;DHT22;46848;51.980;5.918;2022-09-09T14:01:39;20.20;73.70
43520;DHT22;46848;51.980;5.918;2022-09-09T14:04:06;20.20;73.70
43520;DHT22;46848;51.980;5.918;2022-09-09T14:06:32;20.20;73.80
43520;DHT22;46848;51.980;5.918;2022-09-09T14:09:00;20.10;74.00
43520;DHT22;46848;51.980;5.918;2022-09-09T14:11:26;20.10;73.80
43520;DHT22;46848;51.980;5.918;2022-09-09T14:13:51;20.00;73.50
43520;DHT22;46848;51.980;5.918;2022-09-09T14:16:18;20.00;73.50
43520;DHT22;46848;51.980;5.918;2022-09-09T14:18:44;20.00;73.50
43520;DHT22;46848;51.980;5.918;2022-09-09T14:21:11;20.10;73.40
43520;DHT22;46848;51.980;5.918;2022-09-09T14:23:38;20.20;73.20
43520;DHT22;46848;51.980;5.918;2022-09-09T14:26:06;20.10;72.80
43520;DHT22;46848;51.980;5.918;2022-09-09T14:28:33;20.10;72.80
43520;DHT22;46848;51.980;5.918;2022-09-09T14:31:03;20.10;72.80
43520;DHT22;46848;51.980;5.918;2022-09-09T14:33:29;20.00;72.90
43520;DHT22;46848;51.980;5.918;2022-09-09T14:35:57;20.00;73.10
43520;DHT22;46848;51.980;5.918;2022-09-09T14:38:22;20.00;73.20
43520;DHT22;46848;51.980;5.918;2022-09-09T14:40:48;20.00;73.40
43520;DHT22;46848;51.980;5.918;2022-09-09T14:43:14;19.90;73.50
43520;DHT22;46848;51.980;5.918;2022-09-09T14:45:40;20.00;73.60
43520;DHT22;46848;51.980;5.918;2022-09-09T14:48:05;20.00;73.70
43520;DHT22;46848;51.980;5.918;2022-09-09T14:50:31;20.00;73.70
43520;DHT22;46848;51.980;5.918;2022-09-09T14:52:57;20.10;73.70
43520;DHT22;46848;51.980;5.918;2022-09-09T14:55:22;20.20;73.50
43520;DHT22;46848;51.980;5.918;2022-09-09T14:57:48;20.20;73.30
43520;DHT22;46848;51.980;5.918;2022-09-09T15:00:14;20.30;73.30
43520;DHT22;46848;51.980;5.918;2022-09-09T15:02:41;20.40;73.20
43520;DHT22;46848;51.980;5.918;2022-09-09T15:05:07;20.50;73.60
43520;DHT22;46848;51.980;5.918;2022-09-09T15:07:33;20.50;72.80
43520;DHT22;46848;51.980;5.918;2022-09-09T15:09:59;20.60;72.60
43520;DHT22;46848;51.980;5.918;2022-09-09T15:12:25;20.50;72.50
43520;DHT22;46848;51.980;5.918;2022-09-09T15:14:50;20.50;72.60
43520;DHT22;46848;51.980;5.918;2022-09-09T15:17:16;20.50;72.60
43520;DHT22;46848;51.980;5.918;2022-09-09T15:19:42;20.50;72.40
43520;DHT22;46848;51.980;5.918;2022-09-09T15:22:08;20.50;72.60
43520;DHT22;46848;51.980;5.918;2022-09-09T15:24:34;20.50;72.60
43520;DHT22;46848;51.980;5.918;2022-09-09T15:27:01;20.50;72.50
43520;DHT22;46848;51.980;5.918;2022-09-09T15:29:27;20.50;72.70
43520;DHT22;46848;51.980;5.918;2022-09-09T15:31:54;20.50;73.00
43520;DHT22;46848;51.980;5.918;2022-09-09T15:34:23;20.50;73.30
43520;DHT22;46848;51.980;5.918;2022-09-09T15:36:48;20.40;73.60
43520;DHT22;46848;51.980;5.918;2022-09-09T15:39:16;20.40;73.90
43520;DHT22;46848;51.980;5.918;2022-09-09T15:41:43;20.30;74.00
43520;DHT22;46848;51.980;5.918;2022-09-09T15:44:10;20.40;74.30
43520;DHT22;46848;51.980;5.918;2022-09-09T15:49:12;20.40;74.70
43520;DHT22;46848;51.980;5.918;2022-09-09T15:51:43;20.40;74.60
43520;DHT22;46848;51.980;5.918;2022-09-09T15:54:13;20.40;74.40
43520;DHT22;46848;51.980;5.918;2022-09-09T15:56:41;20.40;74.10
43520;DHT22;46848;51.980;5.918;2022-09-09T15:59:07;20.30;74.00
43520;DHT22;46848;51.980;5.918;2022-09-09T16:01:33;20.30;73.80
43520;DHT22;46848;51.980;5.918;2022-09-09T16:04:00;20.30;73.70
43520;DHT22;46848;51.980;5.918;2022-09-09T16:06:28;20.30;73.50
43520;DHT22;46848;51.980;5.918;2022-09-09T16:08:55;20.30;73.40
43520;DHT22;46848;51.980;5.918;2022-09-09T16:11:26;20.20;73.70
43520;DHT22;46848;51.980;5.918;2022-09-09T16:13:54;20.20;74.40
43520;DHT22;46848;51.980;5.918;2022-09-09T16:16:23;20.00;74.20
43520;DHT22;46848;51.980;5.918;2022-09-09T16:18:54;19.90;74.60
43520;DHT22;46848;51.980;5.918;2022-09-09T16:21:32;19.70;75.10
43520;DHT22;46848;51.980;5.918;2022-09-09T16:24:00;19.70;75.70
43520;DHT22;46848;51.980;5.918;2022-09-09T16:26:27;19.60;75.90
43520;DHT22;46848;51.980;5.918;2022-09-09T16:28:53;19.60;76.10
43520;DHT22;46848;51.980;5.918;2022-09-09T16:31:21;19.50;76.20
43520;DHT22;46848;51.980;5.918;2022-09-09T16:33:47;19.50;76.60
43520;DHT22;46848;51.980;5.918;2022-09-09T16:36:19;19.40;77.00
43520;DHT22;46848;51.980;5.918;2022-09-09T16:38:46;19.30;77.40
43520;DHT22;46848;51.980;5.918;2022-09-09T16:41:13;19.30;77.80
43520;DHT22;46848;51.980;5.918;2022-09-09T16:43:40;19.20;78.10
43520;DHT22;46848;51.980;5.918;2022-09-09T16:46:26;19.20;78.40
43520;DHT22;46848;51.980;5.918;2022-09-09T16:48:53;19.20;78.80
43520;DHT22;46848;51.980;5.918;2022-09-09T16:51:23;19.20;78.70
43520;DHT22;46848;51.980;5.918;2022-09-09T16:53:50;19.10;78.60
43520;DHT22;46848;51.980;5.918;2022-09-09T16:56:19;19.00;78.40
43520;DHT22;46848;51.980;5.918;2022-09-09T16:58:53;19.00;78.40
43520;DHT22;46848;51.980;5.918;2022-09-09T17:01:21;19.00;78.40
43520;DHT22;46848;51.980;5.918;2022-09-09T17:03:46;18.90;78.30
43520;DHT22;46848;51.980;5.918;2022-09-09T17:06:13;18.90;78.50
43520;DHT22;46848;51.980;5.918;2022-09-09T17:08:40;18.90;78.60
43520;DHT22;46848;51.980;5.918;2022-09-09T17:11:17;18.90;78.70
43520;DHT22;46848;51.980;5.918;2022-09-09T17:13:45;18.90;78.60
43520;DHT22;46848;51.980;5.918;2022-09-09T17:16:12;18.90;78.60
43520;DHT22;46848;51.980;5.918;2022-09-09T17:18:38;18.90;78.60
43520;DHT22;46848;51.980;5.918;2022-09-09T17:21:13;18.90;78.60
43520;DHT22;46848;51.980;5.918;2022-09-09T17:23:40;18.90;78.80
43520;DHT22;46848;51.980;5.918;2022-09-09T17:26:08;18.90;78.80
43520;DHT22;46848;51.980;5.918;2022-09-09T17:28:35;18.90;78.90
43520;DHT22;46848;51.980;5.918;2022-09-09T17:31:02;18.90;78.90
43520;DHT22;46848;51.980;5.918;2022-09-09T17:33:35;18.90;78.80
43520;DHT22;46848;51.980;5.918;2022-09-09T17:36:06;18.90;79.00
43520;DHT22;46848;51.980;5.918;2022-09-09T17:38:33;18.90;79.00
43520;DHT22;46848;51.980;5.918;2022-09-09T17:41:03;18.90;79.10
43520;DHT22;46848;51.980;5.918;2022-09-09T17:43:30;18.90;79.70
43520;DHT22;46848;51.980;5.918;2022-09-09T17:45:55;18.90;79.10
43520;DHT22;46848;51.980;5.918;2022-09-09T17:48:30;18.90;79.00
43520;DHT22;46848;51.980;5.918;2022-09-09T17:50:59;18.90;79.10
43520;DHT22;46848;51.980;5.918;2022-09-09T17:53:25;18.90;79.30
43520;DHT22;46848;51.980;5.918;2022-09-09T17:55:51;18.80;79.80
43520;DHT22;46848;51.980;5.918;2022-09-09T17:58:17;18.80;79.20
43520;DHT22;46848;51.980;5.918;2022-09-09T18:00:43;18.80;79.40
43520;DHT22;46848;51.980;5.918;2022-09-09T18:03:08;18.80;79.50